Time;durP1;ratioP1;P1;durP2;ratioP2;P2;SDS_P1;SDS_P2;PMS_P1;PMS_P2;Temp;Humidity;BMP_temperature;BMP_pressure;BME280_temperature;BME280_humidity;BME280_pressure;Samples;Min_cycle;Max_cycle;Signal;HPM_P1;HPM_P2
2022/10/21 00:02:20;;;;;;;43.43;40.23;;;;;;;10.38;100.00;101125.84;5072240;28;20765;-50
2022/10/21 00:04:47;;;;;;;45.50;42.00;;;;;;;10.37;100.00;101112.69;5072171;28;20938;-53
2022/10/21 00:07:15;;;;;;;44.03;40.70;;;;;;;10.36;100.00;101106.50;5072197;28;20499;-53
2022/10/21 00:09:42;;;;;;;46.23;42.23;;;;;;;10.36;100.00;101111.84;5071670;28;20462;-52
2022/10/21 00:12:10;;;;;;;45.77;42.00;;;;;;;10.35;100.00;101099.53;5071781;28;20470;-49
2022/10/21 00:14:37;;;;;;;44.97;41.57;;;;;;;10.36;100.00;101106.50;5071942;28;20434;-52
2022/10/21 00:17:05;;;;;;;45.17;41.67;;;;;;;10.38;100.00;101101.00;5072122;28;20450;-50
2022/10/21 00:19:34;;;;;;;44.70;41.47;;;;;;;10.39;100.00;101106.13;5071373;28;20458;-47
2022/10/21 00:22:01;;;;;;;46.63;43.33;;;;;;;10.38;100.00;101095.69;5071780;28;20468;-52
2022/10/21 00:24:29;;;;;;;46.33;42.83;;;;;;;10.37;100.00;101091.34;5071931;28;20438;-48
2022/10/21 00:26:56;;;;;;;45.17;42.00;;;;;;;10.35;100.00;101090.72;5071750;28;20458;-50
2022/10/21 00:29:24;;;;;;;46.60;42.73;;;;;;;10.35;100.00;101080.06;5071476;28;20520;-47
2022/10/21 00:31:53;;;;;;;47.53;43.80;;;;;;;10.31;100.00;101081.44;5071780;28;20488;-51
2022/10/21 00:34:20;;;;;;;44.00;41.03;;;;;;;10.26;100.00;101084.66;5071823;28;20439;-49
2022/10/21 00:36:49;;;;;;;47.50;43.80;;;;;;;10.20;100.00;101073.91;5071776;28;20515;-53
2022/10/21 00:39:16;;;;;;;49.27;45.50;;;;;;;10.14;100.00;101077.31;5071271;28;20466;-51
2022/10/21 00:41:44;;;;;;;49.17;45.33;;;;;;;10.07;100.00;101079.03;5071487;28;20489;-50
2022/10/21 00:44:14;;;;;;;47.17;43.47;;;;;;;10.00;100.00;101068.31;5071765;28;20442;-50
2022/10/21 00:46:45;;;;;;;49.40;45.50;;;;;;;9.96;100.00;101069.69;5071561;28;20480;-48
2022/10/21 00:49:18;;;;;;;49.30;45.30;;;;;;;9.89;100.00;101066.94;5071212;28;20523;-52
2022/10/21 00:51:52;;;;;;;48.67;44.70;;;;;;;9.83;100.00;101069.50;5071503;28;20430;-48
2022/10/21 00:54:22;;;;;;;47.70;43.70;;;;;;;9.78;100.00;101066.56;5071613;28;20435;-51
2022/10/21 00:56:52;;;;;;;51.73;47.33;;;;;;;9.72;100.00;101061.97;5071454;28;21037;-48
2022/10/21 00:59:21;;;;;;;48.10;44.30;;;;;;;9.66;100.00;101058.19;5071033;28;20462;-55
2022/10/21 01:01:50;;;;;;;51.50;46.60;;;;;;;9.63;100.00;101055.06;5074118;28;20426;-52
2022/10/21 01:04:18;;;;;;;49.60;45.27;;;;;;;9.59;100.00;101059.13;5075551;28;20931;-54
2022/10/21 01:06:47;;;;;;;48.67;44.67;;;;;;;9.56;100.00;101051.50;5075277;28;20434;-50
2022/10/21 01:09:17;;;;;;;51.67;47.17;;;;;;;9.54;100.00;101049.00;5075034;28;20473;-53
2022/10/21 01:11:47;;;;;;;52.80;47.80;;;;;;;9.52;100.00;101052.88;5075297;28;20997;-50
2022/10/21 01:14:46;;;;;;;50.50;46.40;;;;;;;9.51;100.00;101040.56;5075455;28;20469;-52
2022/10/21 01:17:29;;;;;;;51.77;47.23;;;;;;;9.51;100.00;101051.19;5075254;28;20446;-50
2022/10/21 01:20:49;;;;;;;50.17;46.00;;;;;;;9.47;100.00;101042.75;5075303;28;20439;-49
2022/10/21 01:23:39;;;;;;;52.33;47.47;;;;;;;9.44;100.00;101051.09;5070887;28;20434;-50
2022/10/21 01:26:22;;;;;;;53.47;48.63;;;;;;;9.41;100.00;101038.97;5075453;28;20428;-49
2022/10/21 01:29:05;;;;;;;53.33;48.33;;;;;;;9.37;100.00;101039.53;5074699;28;20990;-51
2022/10/21 01:31:39;;;;;;;54.73;49.97;;;;;;;9.34;100.00;101038.06;5074793;28;20462;-47
2022/10/21 01:34:11;;;;;;;51.33;47.03;;;;;;;9.31;100.00;101037.59;5075295;28;20519;-48
2022/10/21 01:36:43;;;;;;;50.73;46.47;;;;;;;9.28;100.00;101024.66;5074872;28;20426;-50
2022/10/21 01:39:18;;;;;;;53.53;48.67;;;;;;;9.24;100.00;101029.50;5074483;28;20527;-47
2022/10/21 01:41:51;;;;;;;52.00;47.30;;;;;;;9.23;100.00;101027.84;5074775;28;20438;-48
2022/10/21 01:44:24;;;;;;;56.50;51.20;;;;;;;9.22;100.00;101014.75;5074824;28;20464;-50
2022/10/21 01:46:57;;;;;;;51.43;47.10;;;;;;;9.18;100.00;101016.94;5074850;28;20523;-48
2022/10/21 01:49:32;;;;;;;50.57;45.93;;;;;;;9.16;100.00;101016.28;5074468;28;20458;-50
2022/10/21 01:52:00;;;;;;;52.77;48.20;;;;;;;9.13;100.00;101027.28;5074566;28;20440;-52
2022/10/21 01:54:32;;;;;;;55.03;50.07;;;;;;;9.09;100.00;101019.84;5074501;28;21327;-52
2022/10/21 01:57:01;;;;;;;52.10;47.40;;;;;;;9.06;100.00;101021.03;5074775;28;20446;-48
2022/10/21 01:59:31;;;;;;;51.60;47.30;;;;;;;9.04;100.00;101012.41;5073874;28;20531;-52
2022/10/21 02:02:04;;;;;;;50.67;46.40;;;;;;;9.00;100.00;101003.13;5064708;22;20548;-43
2022/10/21 02:04:34;;;;;;;50.47;46.07;;;;;;;8.98;100.00;101001.66;5034531;28;20417;-45
2022/10/21 02:07:02;;;;;;;53.90;48.93;;;;;;;8.98;100.00;100994.50;5034327;28;20482;-43
2022/10/21 02:09:30;;;;;;;52.80;48.07;;;;;;;8.97;100.00;100987.53;5034016;28;20460;-42
2022/10/21 02:12:01;;;;;;;55.23;50.63;;;;;;;8.95;100.00;100986.88;5033476;28;20444;-43
2022/10/21 02:14:32;;;;;;;52.17;47.47;;;;;;;8.92;100.00;100989.91;5034005;28;20892;-42
2022/10/21 02:17:02;;;;;;;52.60;48.17;;;;;;;8.88;100.00;100991.25;5034297;28;20486;-41
2022/10/21 02:19:30;;;;;;;50.73;46.23;;;;;;;8.85;100.00;100996.94;5033220;28;20464;-44
2022/10/21 02:22:06;;;;;;;53.97;49.17;;;;;;;8.81;100.00;100983.16;5033715;28;20969;-42
2022/10/21 02:24:38;;;;;;;54.27;49.20;;;;;;;8.79;100.00;100982.53;5034219;28;20432;-44
2022/10/21 02:27:06;;;;;;;51.57;47.27;;;;;;;8.77;100.00;100970.41;5034203;28;20428;-42
2022/10/21 02:29:37;;;;;;;52.87;48.50;;;;;;;8.73;100.00;100967.28;5033342;28;20992;-42
2022/10/21 02:32:16;;;;;;;50.07;45.67;;;;;;;8.69;100.00;100952.69;5033656;28;20448;-43
2022/10/21 02:34:55;;;;;;;52.33;47.53;;;;;;;8.69;100.00;100957.22;5034139;28;20593;-44
2022/10/21 02:37:31;;;;;;;53.30;48.53;;;;;;;8.66;100.00;100963.69;5033905;28;20474;-43
2022/10/21 02:40:05;;;;;;;56.77;51.50;;;;;;;8.65;100.00;100963.88;5034137;28;20498;-44
2022/10/21 02:42:35;;;;;;;49.47;45.33;;;;;;;8.62;100.00;100965.06;5033778;28;20448;-43
2022/10/21 02:45:04;;;;;;;49.63;45.40;;;;;;;8.58;100.00;100952.28;5034260;28;20456;-43
2022/10/21 02:47:35;;;;;;;53.90;49.27;;;;;;;8.54;100.00;100962.44;5033455;28;20440;-45
2022/10/21 02:50:04;;;;;;;51.90;47.80;;;;;;;8.50;100.00;100965.66;5033690;28;20972;-43
2022/10/21 02:52:32;;;;;;;56.97;50.73;;;;;;;8.50;100.00;100963.00;5033416;28;20502;-43
2022/10/21 02:55:00;;;;;;;54.53;49.60;;;;;;;8.48;100.00;100954.38;5033499;28;20592;-43
2022/10/21 02:57:27;;;;;;;56.90;51.50;;;;;;;8.51;100.00;100954.81;5033825;28;20436;-45
2022/10/21 02:59:55;;;;;;;55.97;51.13;;;;;;;8.57;100.00;100951.47;5033360;28;20440;-43
2022/10/21 03:02:23;;;;;;;68.50;61.90;;;;;;;8.63;100.00;100942.78;5033142;28;20463;-44
2022/10/21 03:04:51;;;;;;;62.60;56.77;;;;;;;8.70;100.00;100934.91;5033551;28;20841;-43
2022/10/21 03:07:19;;;;;;;70.57;64.07;;;;;;;8.75;100.00;100925.38;5033214;28;20482;-42
2022/10/21 03:09:47;;;;;;;59.33;54.20;;;;;;;8.83;100.00;100925.34;5033055;28;20801;-45
2022/10/21 03:12:14;;;;;;;66.50;59.80;;;;;;;8.92;100.00;100967.78;5032880;28;20502;-45
2022/10/21 03:14:42;;;;;;;62.43;56.53;;;;;;;8.97;100.00;100957.44;5033162;28;20464;-42
2022/10/21 03:17:10;;;;;;;63.70;57.30;;;;;;;9.01;100.00;100970.22;5033159;28;20527;-44
2022/10/21 03:19:37;;;;;;;60.27;54.57;;;;;;;9.05;100.00;100946.75;5030404;28;20473;-43
2022/10/21 03:22:06;;;;;;;62.57;56.47;;;;;;;9.09;100.00;100959.47;5026964;28;20452;-46
2022/10/21 03:24:34;;;;;;;60.30;54.27;;;;;;;9.14;100.00;100961.63;5032945;28;20428;-43
2022/10/21 03:27:02;;;;;;;64.07;57.23;;;;;;;9.16;100.00;100957.75;5033182;28;20462;-44
2022/10/21 03:29:30;;;;;;;59.73;54.43;;;;;;;9.21;100.00;100957.19;5032502;28;20472;-42
2022/10/21 03:31:57;;;;;;;59.87;54.37;;;;;;;9.25;100.00;100961.16;5032651;28;20452;-42
2022/10/21 03:34:25;;;;;;;57.27;52.57;;;;;;;9.29;100.00;100965.91;5032939;28;20476;-45
2022/10/21 03:36:52;;;;;;;57.73;52.80;;;;;;;9.34;100.00;100965.38;5032612;28;20433;-42
2022/10/21 03:39:21;;;;;;;57.90;53.37;;;;;;;9.36;100.00;100958.88;5031208;28;20456;-42
2022/10/21 03:41:49;;;;;;;60.97;55.77;;;;;;;9.39;100.00;100963.00;5023278;28;20700;-43
2022/10/21 03:44:18;;;;;;;63.70;58.37;;;;;;;9.42;100.00;100962.63;5031471;28;20432;-44
2022/10/21 03:46:48;;;;;;;59.10;54.30;;;;;;;9.47;100.00;100962.88;5031835;28;20446;-42
2022/10/21 03:49:16;;;;;;;59.00;53.90;;;;;;;9.51;100.00;100960.69;5029980;28;20506;-43
2022/10/21 03:51:48;;;;;;;57.63;52.93;;;;;;;9.51;100.00;100958.84;5032342;28;20448;-42
2022/10/21 03:54:16;;;;;;;56.73;52.27;;;;;;;9.56;100.00;100958.31;5032587;28;20518;-43
2022/10/21 03:56:45;;;;;;;60.60;55.40;;;;;;;9.59;100.00;100944.63;5032645;28;20790;-44
2022/10/21 03:59:17;;;;;;;64.57;58.33;;;;;;;9.61;100.00;100950.59;5032639;28;20472;-42
2022/10/21 04:01:48;;;;;;;59.00;53.70;;;;;;;9.64;100.00;100945.72;5032295;28;20570;-42
2022/10/21 04:04:16;;;;;;;58.10;53.37;;;;;;;9.66;100.00;100941.03;5032736;28;20804;-42
2022/10/21 04:06:44;;;;;;;60.03;55.23;;;;;;;9.69;100.00;100947.81;5032621;28;20443;-43
2022/10/21 04:09:17;;;;;;;59.50;54.60;;;;;;;9.72;100.00;100944.78;5031794;28;20494;-41
2022/10/21 04:11:51;;;;;;;58.63;53.40;;;;;;;9.74;100.00;100943.59;5033564;28;20468;-40
2022/10/21 04:14:21;;;;;;;56.93;52.50;;;;;;;9.79;100.00;100948.38;5032788;28;20547;-40
2022/10/21 04:16:49;;;;;;;66.87;60.97;;;;;;;9.81;100.00;100933.84;5032996;28;20798;-42
2022/10/21 04:19:28;;;;;;;61.80;56.93;;;;;;;9.82;100.00;100922.19;5031218;28;20517;-43
2022/10/21 04:21:59;;;;;;;66.33;60.83;;;;;;;9.87;100.00;100913.63;5032605;28;20475;-42
2022/10/21 04:24:30;;;;;;;63.27;58.40;;;;;;;9.92;100.00;100919.22;5032845;28;20499;-42
2022/10/21 04:27:04;;;;;;;67.00;61.90;;;;;;;9.94;100.00;100912.72;5033132;28;20813;-42
2022/10/21 04:29:34;;;;;;;61.60;56.63;;;;;;;9.96;100.00;100907.16;5031322;28;20467;-42
2022/10/21 04:32:02;;;;;;;62.33;57.43;;;;;;;9.99;100.00;100915.63;5032480;28;20487;-41
2022/10/21 04:34:30;;;;;;;60.10;55.20;;;;;;;10.03;100.00;100913.41;5032436;28;20471;-42
2022/10/21 04:36:58;;;;;;;58.50;54.10;;;;;;;10.08;100.00;100913.66;5031645;28;20853;-42
2022/10/21 04:39:31;;;;;;;63.47;58.07;;;;;;;10.13;100.00;100910.41;5030559;28;20510;-42
2022/10/21 04:42:02;;;;;;;61.40;56.43;;;;;;;10.16;100.00;100905.56;5032990;28;20456;-41
2022/10/21 04:44:31;;;;;;;61.03;56.57;;;;;;;10.19;100.00;100901.69;5032748;28;20444;-42
2022/10/21 04:47:02;;;;;;;61.40;56.37;;;;;;;10.21;100.00;100903.19;5032340;28;20443;-43
2022/10/21 04:49:32;;;;;;;66.50;61.13;;;;;;;10.25;100.00;100909.75;5031250;28;20471;-41
2022/10/21 04:52:05;;;;;;;63.60;58.73;;;;;;;10.26;100.00;100897.25;5032700;28;20463;-42
2022/10/21 04:54:34;;;;;;;61.50;56.90;;;;;;;10.27;100.00;100901.59;5032433;28;20475;-42
2022/10/21 04:57:07;;;;;;;63.77;58.90;;;;;;;10.24;100.00;100881.47;5032349;28;20468;-41
2022/10/21 04:59:36;;;;;;;63.50;58.40;;;;;;;10.23;100.00;100876.31;5032309;28;20980;-42
2022/10/21 05:02:04;;;;;;;65.83;60.77;;;;;;;10.21;100.00;100881.03;5031801;28;20471;-42
2022/10/21 05:04:33;;;;;;;64.13;59.13;;;;;;;10.19;100.00;100878.53;5032879;28;20428;-42
2022/10/21 05:07:04;;;;;;;64.20;59.07;;;;;;;10.18;100.00;100876.06;5032257;28;20455;-42
2022/10/21 05:09:32;;;;;;;65.17;59.80;;;;;;;10.12;100.00;100871.47;5031758;28;20460;-42
2022/10/21 05:12:01;;;;;;;61.67;57.40;;;;;;;10.06;100.00;100867.72;5031671;28;20997;-41
2022/10/21 05:14:34;;;;;;;64.63;59.63;;;;;;;10.01;100.00;100864.78;5032081;28;20451;-42
2022/10/21 05:17:04;;;;;;;67.07;61.57;;;;;;;9.96;100.00;100867.22;5031562;28;20443;-41
2022/10/21 05:19:34;;;;;;;62.97;58.53;;;;;;;9.93;100.00;100872.91;5030653;28;21054;-42
2022/10/21 05:22:02;;;;;;;68.63;62.57;;;;;;;9.89;100.00;100868.97;5031777;28;20502;-42
2022/10/21 05:24:31;;;;;;;63.33;58.17;;;;;;;9.85;100.00;100867.72;5032216;28;20495;-42
2022/10/21 05:26:59;;;;;;;64.80;59.93;;;;;;;9.82;100.00;100862.78;5031962;28;20782;-44
2022/10/21 05:29:28;;;;;;;67.97;62.50;;;;;;;9.79;100.00;100863.97;5031388;28;21051;-42
2022/10/21 05:31:58;;;;;;;66.47;61.17;;;;;;;9.79;100.00;100873.81;5031905;28;20880;-42
2022/10/21 05:34:26;;;;;;;67.13;62.07;;;;;;;9.78;100.00;100872.13;5032034;28;20448;-41
2022/10/21 05:36:56;;;;;;;63.07;58.10;;;;;;;9.77;100.00;100860.66;5032475;28;20540;-41
2022/10/21 05:39:42;;;;;;;65.73;60.63;;;;;;;9.78;100.00;100858.81;5021101;28;20468;-41
2022/10/21 05:42:26;;;;;;;65.53;60.43;;;;;;;9.77;100.00;100858.00;5030531;28;20460;-42
2022/10/21 05:44:58;;;;;;;67.17;62.10;;;;;;;9.77;100.00;100871.31;5032229;28;20544;-42
2022/10/21 05:47:39;;;;;;;63.37;59.07;;;;;;;9.74;100.00;100866.34;5034101;28;20501;-42
2022/10/21 05:50:11;;;;;;;62.87;57.83;;;;;;;9.73;100.00;100869.22;5035635;28;20901;-42
2022/10/21 05:52:41;;;;;;;62.40;57.87;;;;;;;9.71;100.00;100863.25;5035476;28;20495;-42
2022/10/21 05:55:14;;;;;;;66.07;61.40;;;;;;;9.71;100.00;100864.06;5035189;28;20476;-43
2022/10/21 05:57:45;;;;;;;63.70;59.07;;;;;;;9.69;100.00;100866.09;5034983;28;20448;-41
2022/10/21 06:00:14;;;;;;;69.37;63.53;;;;;;;9.68;100.00;100853.78;5035161;28;20483;-41
2022/10/21 06:02:44;;;;;;;86.47;78.70;;;;;;;9.70;100.00;100842.97;5035121;28;20491;-42
2022/10/21 06:05:14;;;;;;;93.33;85.63;;;;;;;9.70;100.00;100849.13;5035333;28;20440;-42
2022/10/21 06:07:42;;;;;;;83.63;76.73;;;;;;;9.71;100.00;100864.06;5034627;28;20432;-42
2022/10/21 06:10:11;;;;;;;69.47;64.03;;;;;;;9.74;100.00;100870.84;5034856;28;21068;-42
2022/10/21 06:12:39;;;;;;;68.37;62.97;;;;;;;9.78;100.00;100861.47;5034940;28;20445;-42
2022/10/21 06:15:09;;;;;;;67.40;62.50;;;;;;;9.80;100.00;100873.59;5034644;28;20891;-41
2022/10/21 06:20:30;;;;;;;61.87;57.63;;;;;;;9.94;100.00;100887.91;5035253;28;20879;-41
2022/10/21 06:23:06;;;;;;;64.60;59.93;;;;;;;9.98;100.00;100884.66;5035809;28;20432;-42
2022/10/21 06:25:35;;;;;;;66.33;61.17;;;;;;;10.06;100.00;100874.91;5035399;28;20519;-39
2022/10/21 06:28:06;;;;;;;62.93;58.43;;;;;;;10.12;100.00;100877.63;5033889;28;20467;-42
2022/10/21 06:30:37;;;;;;;64.77;60.07;;;;;;;10.18;100.00;100895.56;5035061;28;20451;-41
2022/10/21 06:33:06;;;;;;;65.30;60.47;;;;;;;10.25;100.00;100888.44;5035419;28;20474;-42
2022/10/21 06:35:36;;;;;;;65.23;60.10;;;;;;;10.31;100.00;100874.34;5034451;28;20527;-42
2022/10/21 06:38:05;;;;;;;67.60;62.10;;;;;;;10.31;100.00;100868.19;5034046;28;20492;-43
2022/10/21 06:40:33;;;;;;;66.57;61.40;;;;;;;10.37;100.00;100870.91;5034472;28;20485;-42
2022/10/21 06:43:03;;;;;;;63.67;58.93;;;;;;;10.43;100.00;100877.31;5034705;28;20432;-42
2022/10/21 06:45:35;;;;;;;64.80;60.10;;;;;;;10.46;100.00;100880.44;5034998;28;20455;-43
2022/10/21 06:48:03;;;;;;;62.90;58.10;;;;;;;10.57;100.00;100878.25;5033529;28;20901;-42
2022/10/21 06:50:33;;;;;;;64.13;59.20;;;;;;;10.64;100.00;100879.13;5034352;28;20519;-43
2022/10/21 06:53:02;;;;;;;61.70;57.37;;;;;;;10.64;100.00;100882.63;5034012;28;21016;-42
2022/10/21 06:55:31;;;;;;;61.83;56.77;;;;;;;10.80;100.00;100890.34;5016783;28;20556;-42
2022/10/21 06:58:04;;;;;;;63.97;58.83;;;;;;;10.95;100.00;100892.91;5032884;28;20550;-42
2022/10/21 07:00:44;;;;;;;63.13;58.03;;;;;;;11.05;100.00;100890.72;5034216;28;20443;-39
2022/10/21 07:03:14;;;;;;;57.63;53.73;;;;;;;11.13;100.00;100885.22;5034983;28;20821;-42
2022/10/21 07:05:44;;;;;;;59.50;54.87;;;;;;;11.17;100.00;100886.47;5034434;28;20476;-40
2022/10/21 07:08:35;;;;;;;55.83;51.70;;;;;;;11.15;100.00;100885.84;5033123;28;20467;-42
2022/10/21 07:11:28;;;;;;;53.47;49.40;;;;;;;11.24;100.00;100876.66;5034418;28;20460;-42
2022/10/21 07:14:02;;;;;;;52.27;48.43;;;;;;;11.35;100.00;100872.63;5030643;28;20447;-39
2022/10/21 07:16:34;;;;;;;50.80;46.90;;;;;;;11.44;100.00;100880.22;5033772;28;20472;-42
2022/10/21 07:19:09;;;;;;;52.90;48.37;;;;;;;11.48;100.00;100868.16;5033404;28;20475;-42
2022/10/21 07:21:52;;;;;;;51.17;47.10;;;;;;;11.54;100.00;100878.03;5025781;28;20475;-42
2022/10/21 07:24:21;;;;;;;48.83;45.23;;;;;;;11.67;100.00;100874.59;5033893;28;20556;-42
2022/10/21 07:26:51;;;;;;;50.07;45.90;;;;;;;11.73;100.00;100884.50;5033583;28;20464;-42
2022/10/21 07:29:20;;;;;;;49.83;45.93;;;;;;;11.66;100.00;100864.91;5033017;28;20556;-42
2022/10/21 07:32:00;;;;;;;48.47;44.70;;;;;;;11.71;100.00;100865.16;5034230;28;20463;-42
2022/10/21 07:34:31;;;;;;;50.43;45.80;;;;;;;11.82;100.00;100871.78;5034054;28;20447;-43
2022/10/21 07:37:06;;;;;;;45.57;42.47;;;;;;;11.93;100.00;100866.69;5033671;28;20483;-42
2022/10/21 07:39:36;;;;;;;47.87;44.27;;;;;;;11.95;100.00;100879.81;5032583;28;20869;-42
2022/10/21 07:42:05;;;;;;;49.60;45.80;;;;;;;12.01;100.00;100868.31;5033139;28;20873;-42
2022/10/21 07:44:33;;;;;;;48.43;43.97;;;;;;;12.07;100.00;100872.84;5033141;28;20467;-43
2022/10/21 07:47:05;;;;;;;50.47;46.87;;;;;;;12.06;100.00;100866.72;5033537;28;20432;-42
2022/10/21 07:49:36;;;;;;;47.87;44.00;;;;;;;12.12;100.00;100867.75;5002765;28;20472;-43
2022/10/21 07:52:08;;;;;;;47.90;44.10;;;;;;;12.12;100.00;100863.22;5033392;28;20534;-43
2022/10/21 07:54:39;;;;;;;47.63;44.07;;;;;;;12.16;100.00;100872.47;5033944;28;20479;-43
2022/10/21 07:57:13;;;;;;;48.83;44.77;;;;;;;12.13;100.00;100872.88;5033711;28;20545;-42
2022/10/21 07:59:46;;;;;;;47.03;43.50;;;;;;;12.17;100.00;100866.09;5030786;28;20522;-43
2022/10/21 08:02:30;;;;;;;50.03;45.57;;;;;;;12.15;100.00;100862.00;5033237;28;21000;-43
2022/10/21 08:07:52;;;;;;;48.83;44.93;;;;;;;12.41;100.00;100869.19;5029923;28;20459;-43
2022/10/21 08:10:27;;;;;;;48.90;45.00;;;;;;;12.47;100.00;100882.59;5032208;28;20448;-42
2022/10/21 08:13:00;;;;;;;51.80;47.63;;;;;;;12.54;100.00;100890.63;5033569;28;20889;-42
2022/10/21 08:15:32;;;;;;;50.17;46.27;;;;;;;12.57;100.00;100893.69;5033899;28;20401;-42
2022/10/21 08:18:06;;;;;;;49.90;46.10;;;;;;;12.53;100.00;100892.47;5032156;28;20961;-42
2022/10/21 08:20:48;;;;;;;51.00;47.10;;;;;;;12.51;100.00;100880.34;5080136;22;20646;-45
2022/10/21 08:23:19;;;;;;;51.77;47.67;;;;;;;12.44;100.00;100864.28;5052163;28;20491;-49
2022/10/21 08:25:50;;;;;;;53.33;49.00;;;;;;;12.40;100.00;100857.69;5052190;28;20435;-48
2022/10/21 08:28:19;;;;;;;50.53;46.43;;;;;;;12.37;100.00;100858.09;5051580;28;20470;-47
2022/10/21 08:30:46;;;;;;;53.80;49.20;;;;;;;12.34;100.00;100861.16;5051818;28;20749;-47
2022/10/21 08:33:15;;;;;;;55.47;50.53;;;;;;;12.33;100.00;100864.91;5052128;28;20848;-46
2022/10/21 08:35:43;;;;;;;51.33;47.37;;;;;;;12.32;100.00;100860.56;5052024;28;20465;-45
2022/10/21 08:38:11;;;;;;;52.47;48.13;;;;;;;12.30;100.00;100861.81;5051262;28;20513;-45
2022/10/21 08:40:42;;;;;;;49.93;46.10;;;;;;;12.25;100.00;100867.75;5051631;28;20849;-46
2022/10/21 08:43:19;;;;;;;49.70;45.43;;;;;;;12.27;100.00;100876.41;5051914;28;20443;-47
2022/10/21 08:45:51;;;;;;;50.20;46.07;;;;;;;12.25;100.00;100870.41;5052019;28;20442;-48
2022/10/21 08:48:24;;;;;;;51.57;47.30;;;;;;;12.28;100.00;100879.88;5051223;28;20467;-47
2022/10/21 08:50:55;;;;;;;52.10;47.87;;;;;;;12.27;100.00;100865.72;5051494;28;20443;-45
2022/10/21 08:53:26;;;;;;;50.77;46.60;;;;;;;12.28;100.00;100863.84;5051635;28;20435;-47
2022/10/21 08:56:02;;;;;;;51.53;47.43;;;;;;;12.31;100.00;100856.22;5052073;28;20468;-46
2022/10/21 08:58:31;;;;;;;53.73;49.23;;;;;;;12.34;100.00;100852.31;5051201;28;21045;-48
2022/10/21 09:01:03;;;;;;;51.67;47.47;;;;;;;12.35;100.00;100860.16;5051748;28;20475;-48
2022/10/21 09:03:41;;;;;;;51.60;47.50;;;;;;;12.35;100.00;100865.50;5051839;28;20931;-49
2022/10/21 09:06:31;;;;;;;51.70;47.47;;;;;;;12.49;100.00;100850.25;5051674;28;20461;-45
2022/10/21 09:09:06;;;;;;;50.50;46.27;;;;;;;12.59;100.00;100856.03;5051092;28;20455;-47
2022/10/21 09:11:55;;;;;;;51.70;47.40;;;;;;;12.66;100.00;100855.00;5051164;28;20447;-45
2022/10/21 09:14:53;;;;;;;49.53;45.83;;;;;;;12.72;100.00;100856.03;5051633;28;20442;-48
2022/10/21 09:17:35;;;;;;;47.57;43.87;;;;;;;12.73;100.00;100847.78;5051651;28;20528;-47
2022/10/21 09:20:14;;;;;;;52.70;47.80;;;;;;;12.74;100.00;100844.09;5051184;28;20947;-47
2022/10/21 09:22:52;;;;;;;54.17;49.57;;;;;;;12.82;100.00;100839.53;5053791;28;20423;-45
2022/10/21 09:25:25;;;;;;;52.00;47.90;;;;;;;12.84;100.00;100841.00;5055297;28;20427;-46
2022/10/21 09:27:55;;;;;;;53.30;49.10;;;;;;;12.92;100.00;100845.28;5054939;28;20481;-46
2022/10/21 09:30:25;;;;;;;48.70;44.90;;;;;;;12.95;100.00;100835.00;5055276;28;20916;-47
2022/10/21 09:32:57;;;;;;;49.47;45.90;;;;;;;13.04;100.00;100840.94;5054842;28;20430;-46
2022/10/21 09:35:33;;;;;;;51.70;47.80;;;;;;;13.06;100.00;100837.00;5055280;28;20439;-46
2022/10/21 09:38:10;;;;;;;50.80;46.77;;;;;;;13.06;100.00;100834.34;5054823;28;20463;-48
2022/10/21 09:40:38;;;;;;;50.93;46.73;;;;;;;13.06;100.00;100838.88;5055053;28;20447;-46
2022/10/21 09:43:13;;;;;;;51.73;47.47;;;;;;;13.11;100.00;100837.22;5054629;28;20485;-51
2022/10/21 09:45:45;;;;;;;50.00;46.50;;;;;;;13.16;100.00;100845.47;5055080;28;20758;-50
2022/10/21 09:48:28;;;;;;;50.33;46.17;;;;;;;13.22;100.00;100851.84;5054585;28;20455;-45
2022/10/21 09:51:09;;;;;;;46.90;43.70;;;;;;;13.31;100.00;100845.22;5054764;28;20534;-50
2022/10/21 09:53:41;;;;;;;52.07;47.87;;;;;;;13.40;100.00;100846.63;5055343;28;20434;-48
2022/10/21 09:56:20;;;;;;;52.17;47.67;;;;;;;13.54;100.00;100847.38;5054733;28;20431;-45
2022/10/21 09:58:50;;;;;;;51.83;47.40;;;;;;;13.62;100.00;100849.84;5054273;28;20501;-50
2022/10/21 10:01:22;;;;;;;52.37;47.67;;;;;;;13.62;100.00;100852.50;5054813;28;20477;-47
2022/10/21 10:03:51;;;;;;;50.10;46.20;;;;;;;13.54;100.00;100844.69;5054829;28;20492;-47
2022/10/21 10:06:32;;;;;;;50.67;46.70;;;;;;;13.57;100.00;100842.41;5054262;28;20847;-47
2022/10/21 10:09:12;;;;;;;49.57;45.20;;;;;;;13.61;100.00;100834.78;5054189;28;20463;-47
2022/10/21 10:11:49;;;;;;;50.33;46.60;;;;;;;13.72;100.00;100839.44;5054168;28;20451;-49
2022/10/21 10:14:37;;;;;;;49.80;46.30;;;;;;;13.59;100.00;100837.66;5054621;28;20500;-47
2022/10/21 10:17:30;;;;;;;49.50;45.57;;;;;;;13.54;100.00;100834.81;5054512;28;20427;-47
2022/10/21 10:20:17;;;;;;;49.13;45.23;;;;;;;13.45;100.00;100833.41;5053889;28;20440;-46
2022/10/21 10:22:46;;;;;;;50.90;46.70;;;;;;;13.44;100.00;100829.06;5053829;28;20932;-49
2022/10/21 10:25:22;;;;;;;49.27;45.60;;;;;;;13.56;100.00;100810.50;5054384;28;20428;-47
2022/10/21 10:27:53;;;;;;;48.33;44.83;;;;;;;13.74;100.00;100808.72;5053874;28;20455;-51
2022/10/21 10:30:21;;;;;;;47.83;44.33;;;;;;;14.08;100.00;100812.81;5054417;28;20427;-49
2022/10/21 10:32:53;;;;;;;50.23;46.50;;;;;;;14.43;100.00;100812.34;5053535;28;20427;-45
2022/10/21 10:35:28;;;;;;;52.30;48.30;;;;;;;14.85;100.00;100814.22;5053370;28;20477;-46
2022/10/21 10:37:58;;;;;;;49.73;45.97;;;;;;;15.16;100.00;100821.34;5053632;28;20463;-48
2022/10/21 10:40:31;;;;;;;49.77;45.90;;;;;;;15.46;100.00;100816.81;5053722;28;20991;-47
2022/10/21 10:43:03;;;;;;;47.33;43.90;;;;;;;15.38;100.00;100803.72;5053722;28;20439;-48
2022/10/21 10:45:31;;;;;;;49.23;45.57;;;;;;;15.60;100.00;100820.19;5053832;28;20489;-47
2022/10/21 10:48:03;;;;;;;49.10;45.50;;;;;;;15.59;100.00;100813.19;5053250;28;20532;-50
2022/10/21 10:50:42;;;;;;;48.93;45.43;;;;;;;15.47;100.00;100811.25;5053911;28;20497;-49
2022/10/21 10:53:22;;;;;;;48.93;45.07;;;;;;;15.51;100.00;100806.25;5053546;28;20484;-48
2022/10/21 10:55:54;;;;;;;47.97;44.67;;;;;;;15.48;100.00;100791.41;5053686;28;20761;-46
2022/10/21 10:58:26;;;;;;;49.53;45.93;;;;;;;15.41;100.00;100789.81;5053262;28;20521;-46
2022/10/21 11:00:59;;;;;;;50.17;46.67;;;;;;;15.59;100.00;100799.75;5053287;28;20497;-48
2022/10/21 11:03:35;;;;;;;50.17;46.60;;;;;;;15.76;100.00;100788.13;5053540;28;20442;-48
2022/10/21 11:06:15;;;;;;;50.53;47.23;;;;;;;15.97;100.00;100782.22;5053454;28;20422;-46
2022/10/21 11:08:48;;;;;;;48.20;44.70;;;;;;;15.94;100.00;100784.53;5052854;28;20462;-51
2022/10/21 11:11:24;;;;;;;49.60;46.10;;;;;;;16.07;100.00;100784.31;5053223;28;20474;-46
2022/10/21 11:13:52;;;;;;;51.57;48.03;;;;;;;16.04;100.00;100785.59;5053406;28;20943;-49
2022/10/21 11:16:35;;;;;;;46.33;43.07;;;;;;;16.03;100.00;100789.34;5053165;28;20936;-46
2022/10/21 11:19:34;;;;;;;48.13;44.83;;;;;;;15.82;100.00;100797.97;5052432;28;20467;-45
2022/10/21 11:22:11;;;;;;;51.67;47.83;;;;;;;15.67;100.00;100802.09;5046027;28;20458;-45
2022/10/21 11:25:01;;;;;;;47.33;43.80;;;;;;;15.49;100.00;100798.41;5052676;28;20569;-49
2022/10/21 11:27:57;;;;;;;49.10;45.17;;;;;;;15.37;100.00;100788.63;5052485;28;20469;-45
2022/10/21 11:30:33;;;;;;;49.60;45.80;;;;;;;15.29;100.00;100797.81;5051868;28;20493;-46
2022/10/21 11:33:09;;;;;;;48.23;44.53;;;;;;;15.18;100.00;100801.25;5052736;28;20488;-46
2022/10/21 11:35:43;;;;;;;49.40;45.73;;;;;;;15.10;100.00;100798.88;5052787;28;20423;-47